Página principal
METAR-TAF:

METAR-TAF

Aeroportos :

Port Hardy, Colúmbia Britânica, Canadá

latitude: 50-41N, longitude: 127-22W, altura: 22 m

Observação actual do tempo

O boletim foi feito há 50 minutos, às 03:00 UTC
Vento 6 kt de noroeste
Temperatura 15°C
Humidade 44%
Pressão 1017 hPa
Visibilidade: 32.2 km
Poucas nuvensa uma altura de 25000 ft

METAR: CYZT 230300Z 32006KT 20SM FEW250 15/03 A3003 RMK CI1 CI TR SLP170

Hora: 20:50 (03:50 UTC)

Previsão

O boletim foi feito há 3 horas e 10 minutos, às 00:40 UTC
Previsão válida de 23 às 01 UTC a 23 às 13 UTC
Vento 12 kt de noroeste com rajadas de 22 kt
Visibilidade: 10 km
Céu limpo
Tornando-se
de 23 às 03 UTC a 23 às 05 UTC
Vento 5 kt de oes-noroeste
Tornando-se
de 23 às 08 UTC a 23 às 10 UTC
Vento 5 kt de sudoeste

TAF: CYZT 230040Z 2301/2313 32012G22KT P6SM SKC BECMG 2303/2305 30005KT BECMG 2308/2310 22005KT RMK NXT FCST BY 230700Z

Observações e previsões do tempo de mais de 4000 aeroportos (mensagens METAR e TAF).

As estações disponíveis são os pontos amarelos e vermelhos sobre o mapa.

Mova o rato sobre o mapa para ver o nome da estação.

Depois clique no ponto para visualizar as observações e previsões meteorológicas.

Para alterar o mapa : clique nos botões verdes com uma cruz preta para aumentar o zoom; no botão verde com uma pitada de zoom; ou nas setas verdes para mapas adjacentes.


METAR-TAF: